sensor_id;sensor_type;location;lat;lon;timestamp;temperature;humidity
16999;DHT22;10211;49.476;11.010;2023-02-11T00:01:51;-3.20;99.90
16999;DHT22;10211;49.476;11.010;2023-02-11T00:04:18;-3.20;99.90
16999;DHT22;10211;49.476;11.010;2023-02-11T00:06:44;-3.20;99.90
16999;DHT22;10211;49.476;11.010;2023-02-11T00:09:11;-3.20;99.90
16999;DHT22;10211;49.476;11.010;2023-02-11T00:11:40;-3.20;99.90
16999;DHT22;10211;49.476;11.010;2023-02-11T00:14:07;-3.20;99.90
16999;DHT22;10211;49.476;11.010;2023-02-11T00:16:48;-3.20;99.90
16999;DHT22;10211;49.476;11.010;2023-02-11T00:19:14;-3.20;99.90
16999;DHT22;10211;49.476;11.010;2023-02-11T00:21:41;-3.20;99.90
16999;DHT22;10211;49.476;11.010;2023-02-11T00:24:08;-3.20;99.90
16999;DHT22;10211;49.476;11.010;2023-02-11T00:26:34;-3.30;99.90
16999;DHT22;10211;49.476;11.010;2023-02-11T00:29:03;-3.30;99.90
16999;DHT22;10211;49.476;11.010;2023-02-11T00:31:29;-3.30;99.90
16999;DHT22;10211;49.476;11.010;2023-02-11T00:33:57;-3.30;99.90
16999;DHT22;10211;49.476;11.010;2023-02-11T00:36:26;-3.30;99.90
16999;DHT22;10211;49.476;11.010;2023-02-11T00:38:54;-3.40;99.90
16999;DHT22;10211;49.476;11.010;2023-02-11T00:41:22;-3.40;99.90
16999;DHT22;10211;49.476;11.010;2023-02-11T00:43:49;-3.40;99.90
16999;DHT22;10211;49.476;11.010;2023-02-11T00:46:18;-3.50;99.90
16999;DHT22;10211;49.476;11.010;2023-02-11T00:48:45;-3.50;99.90
16999;DHT22;10211;49.476;11.010;2023-02-11T00:51:18;-3.60;99.90
16999;DHT22;10211;49.476;11.010;2023-02-11T00:53:44;-3.60;99.90
16999;DHT22;10211;49.476;11.010;2023-02-11T00:56:17;-3.60;99.90
16999;DHT22;10211;49.476;11.010;2023-02-11T00:58:44;-3.60;99.90
16999;DHT22;10211;49.476;11.010;2023-02-11T01:01:11;-3.60;99.90
16999;DHT22;10211;49.476;11.010;2023-02-11T01:03:40;-3.60;99.90
16999;DHT22;10211;49.476;11.010;2023-02-11T01:06:07;-3.70;99.90
16999;DHT22;10211;49.476;11.010;2023-02-11T01:08:34;-3.60;99.90
16999;DHT22;10211;49.476;11.010;2023-02-11T01:11:05;-3.70;99.90
16999;DHT22;10211;49.476;11.010;2023-02-11T01:13:34;-3.70;99.90
16999;DHT22;10211;49.476;11.010;2023-02-11T01:16:01;-3.60;99.90
16999;DHT22;10211;49.476;11.010;2023-02-11T01:18:32;-3.60;99.90
16999;DHT22;10211;49.476;11.010;2023-02-11T01:21:00;-3.50;99.90
16999;DHT22;10211;49.476;11.010;2023-02-11T01:23:27;-3.50;99.90
16999;DHT22;10211;49.476;11.010;2023-02-11T01:26:12;-3.50;99.90
16999;DHT22;10211;49.476;11.010;2023-02-11T01:28:39;-3.50;99.90
16999;DHT22;10211;49.476;11.010;2023-02-11T01:31:05;-3.40;99.90
16999;DHT22;10211;49.476;11.010;2023-02-11T01:33:32;-3.40;99.90
16999;DHT22;10211;49.476;11.010;2023-02-11T01:36:02;-3.30;99.90
16999;DHT22;10211;49.476;11.010;2023-02-11T01:38:30;-3.20;99.90
16999;DHT22;10211;49.476;11.010;2023-02-11T01:41:00;-3.10;99.90
16999;DHT22;10211;49.476;11.010;2023-02-11T01:43:31;-3.10;99.90
16999;DHT22;10211;49.476;11.010;2023-02-11T01:46:16;-3.00;99.90
16999;DHT22;10211;49.476;11.010;2023-02-11T01:48:56;-3.00;99.90
16999;DHT22;10211;49.476;11.010;2023-02-11T01:51:32;-2.90;99.90
16999;DHT22;10211;49.476;11.010;2023-02-11T01:54:05;-2.90;99.90
16999;DHT22;10211;49.476;11.010;2023-02-11T01:56:58;-2.90;99.90
16999;DHT22;10211;49.476;11.010;2023-02-11T01:59:46;-2.90;99.90
16999;DHT22;10211;49.476;11.010;2023-02-11T02:02:15;-2.90;99.90
16999;DHT22;10211;49.476;11.010;2023-02-11T02:04:47;-2.80;99.90
16999;DHT22;10211;49.476;11.010;2023-02-11T02:07:43;-2.80;99.90
16999;DHT22;10211;49.476;11.010;2023-02-11T02:10:14;-2.80;99.90
16999;DHT22;10211;49.476;11.010;2023-02-11T02:12:42;-2.80;99.90
16999;DHT22;10211;49.476;11.010;2023-02-11T02:15:20;-2.70;99.90
16999;DHT22;10211;49.476;11.010;2023-02-11T02:17:55;-2.70;99.90
16999;DHT22;10211;49.476;11.010;2023-02-11T02:20:40;-2.60;99.90
16999;DHT22;10211;49.476;11.010;2023-02-11T02:23:27;-2.60;99.90
16999;DHT22;10211;49.476;11.010;2023-02-11T02:32:18;-2.50;99.90
16999;DHT22;10211;49.476;11.010;2023-02-11T02:34:50;-2.40;99.90
16999;DHT22;10211;49.476;11.010;2023-02-11T02:37:23;-2.40;99.90
16999;DHT22;10211;49.476;11.010;2023-02-11T02:39:53;-2.30;99.90
16999;DHT22;10211;49.476;11.010;2023-02-11T02:42:23;-2.30;99.90
16999;DHT22;10211;49.476;11.010;2023-02-11T02:44:51;-2.30;99.90
16999;DHT22;10211;49.476;11.010;2023-02-11T02:47:19;-2.30;99.90
16999;DHT22;10211;49.476;11.010;2023-02-11T02:49:48;-2.30;99.90
16999;DHT22;10211;49.476;11.010;2023-02-11T02:52:20;-2.20;99.90
16999;DHT22;10211;49.476;11.010;2023-02-11T02:58:02;-2.20;99.90
16999;DHT22;10211;49.476;11.010;2023-02-11T03:00:38;-2.10;99.90
16999;DHT22;10211;49.476;11.010;2023-02-11T03:03:16;-2.10;99.90
16999;DHT22;10211;49.476;11.010;2023-02-11T03:05:52;-2.00;99.90
16999;DHT22;10211;49.476;11.010;2023-02-11T03:08:26;-1.90;99.90
16999;DHT22;10211;49.476;11.010;2023-02-11T03:10:55;-1.90;99.90
16999;DHT22;10211;49.476;11.010;2023-02-11T03:13:26;-1.90;99.90
16999;DHT22;10211;49.476;11.010;2023-02-11T03:15:56;-1.80;99.90
16999;DHT22;10211;49.476;11.010;2023-02-11T03:18:26;-1.70;99.90
16999;DHT22;10211;49.476;11.010;2023-02-11T03:20:56;-1.70;99.90
16999;DHT22;10211;49.476;11.010;2023-02-11T03:23:28;-1.60;99.90
16999;DHT22;10211;49.476;11.010;2023-02-11T03:25:59;-1.60;99.90
16999;DHT22;10211;49.476;11.010;2023-02-11T03:28:30;-1.50;99.90
16999;DHT22;10211;49.476;11.010;2023-02-11T03:31:05;-1.40;99.90
16999;DHT22;10211;49.476;11.010;2023-02-11T03:33:38;-1.30;99.90
16999;DHT22;10211;49.476;11.010;2023-02-11T03:36:11;-1.30;99.90
16999;DHT22;10211;49.476;11.010;2023-02-11T03:38:44;-1.20;99.90
16999;DHT22;10211;49.476;11.010;2023-02-11T03:41:14;-1.10;99.90
16999;DHT22;10211;49.476;11.010;2023-02-11T03:43:51;-1.10;99.90
16999;DHT22;10211;49.476;11.010;2023-02-11T03:46:21;-1.00;99.90
16999;DHT22;10211;49.476;11.010;2023-02-11T03:48:54;-1.00;99.90
16999;DHT22;10211;49.476;11.010;2023-02-11T03:51:23;-0.90;99.90
16999;DHT22;10211;49.476;11.010;2023-02-11T03:53:55;-0.90;99.90
16999;DHT22;10211;49.476;11.010;2023-02-11T03:56:29;-0.80;99.90
16999;DHT22;10211;49.476;11.010;2023-02-11T03:58:57;-0.80;99.90
16999;DHT22;10211;49.476;11.010;2023-02-11T04:01:24;-0.80;99.90
16999;DHT22;10211;49.476;11.010;2023-02-11T04:03:52;-0.70;99.90
16999;DHT22;10211;49.476;11.010;2023-02-11T04:06:19;-0.60;99.90
16999;DHT22;10211;49.476;11.010;2023-02-11T04:08:46;-0.50;99.90
16999;DHT22;10211;49.476;11.010;2023-02-11T04:11:13;-0.50;99.90
16999;DHT22;10211;49.476;11.010;2023-02-11T04:13:39;-0.40;99.90
16999;DHT22;10211;49.476;11.010;2023-02-11T04:16:07;-0.40;99.90
16999;DHT22;10211;49.476;11.010;2023-02-11T04:18:34;-0.30;99.90
16999;DHT22;10211;49.476;11.010;2023-02-11T04:21:02;-0.30;99.90
16999;DHT22;10211;49.476;11.010;2023-02-11T04:23:29;-0.30;99.90
16999;DHT22;10211;49.476;11.010;2023-02-11T04:29:18;-0.30;99.90
16999;DHT22;10211;49.476;11.010;2023-02-11T04:31:45;-0.40;99.90
16999;DHT22;10211;49.476;11.010;2023-02-11T04:34:12;-0.40;99.90
16999;DHT22;10211;49.476;11.010;2023-02-11T04:36:40;-0.40;99.90
16999;DHT22;10211;49.476;11.010;2023-02-11T04:39:07;-0.40;99.90
16999;DHT22;10211;49.476;11.010;2023-02-11T04:41:34;-0.40;99.90
16999;DHT22;10211;49.476;11.010;2023-02-11T04:44:00;-0.30;99.90
16999;DHT22;10211;49.476;11.010;2023-02-11T04:46:27;-0.30;99.90
16999;DHT22;10211;49.476;11.010;2023-02-11T04:48:59;-0.20;99.90
16999;DHT22;10211;49.476;11.010;2023-02-11T04:51:25;-0.20;99.90
16999;DHT22;10211;49.476;11.010;2023-02-11T04:53:53;-0.10;99.90
16999;DHT22;10211;49.476;11.010;2023-02-11T04:56:39;-0.10;99.90
16999;DHT22;10211;49.476;11.010;2023-02-11T04:59:06;-0.10;99.90
16999;DHT22;10211;49.476;11.010;2023-02-11T05:01:32;-0.20;99.90
16999;DHT22;10211;49.476;11.010;2023-02-11T05:03:59;-0.20;99.90
16999;DHT22;10211;49.476;11.010;2023-02-11T05:06:26;-0.20;99.90
16999;DHT22;10211;49.476;11.010;2023-02-11T05:09:06;-0.20;99.90
16999;DHT22;10211;49.476;11.010;2023-02-11T05:11:34;-0.20;99.90
16999;DHT22;10211;49.476;11.010;2023-02-11T05:14:01;-0.30;99.90
16999;DHT22;10211;49.476;11.010;2023-02-11T05:16:28;-0.30;99.90
16999;DHT22;10211;49.476;11.010;2023-02-11T05:18:54;-0.30;99.90
16999;DHT22;10211;49.476;11.010;2023-02-11T05:21:21;-0.30;99.90
16999;DHT22;10211;49.476;11.010;2023-02-11T05:23:48;-0.30;99.90
16999;DHT22;10211;49.476;11.010;2023-02-11T05:26:16;-0.30;99.90
16999;DHT22;10211;49.476;11.010;2023-02-11T05:28:43;-0.30;99.90
16999;DHT22;10211;49.476;11.010;2023-02-11T05:31:11;-0.30;99.90
16999;DHT22;10211;49.476;11.010;2023-02-11T05:33:39;-0.30;99.90
16999;DHT22;10211;49.476;11.010;2023-02-11T05:36:08;-0.30;99.90
16999;DHT22;10211;49.476;11.010;2023-02-11T05:38:35;-0.30;99.90
16999;DHT22;10211;49.476;11.010;2023-02-11T05:41:12;-0.30;99.90
16999;DHT22;10211;49.476;11.010;2023-02-11T05:43:40;-0.30;99.90
16999;DHT22;10211;49.476;11.010;2023-02-11T05:46:07;-0.20;99.90
16999;DHT22;10211;49.476;11.010;2023-02-11T05:48:33;-0.10;99.90
16999;DHT22;10211;49.476;11.010;2023-02-11T05:51:00;0.00;99.90
16999;DHT22;10211;49.476;11.010;2023-02-11T05:53:27;0.20;99.90
16999;DHT22;10211;49.476;11.010;2023-02-11T05:58:44;0.40;99.90
16999;DHT22;10211;49.476;11.010;2023-02-11T06:01:11;0.50;99.90
16999;DHT22;10211;49.476;11.010;2023-02-11T06:03:38;0.60;99.90
16999;DHT22;10211;49.476;11.010;2023-02-11T06:06:08;0.70;99.90
16999;DHT22;10211;49.476;11.010;2023-02-11T06:11:40;0.70;99.90
16999;DHT22;10211;49.476;11.010;2023-02-11T06:14:08;0.70;99.90
16999;DHT22;10211;49.476;11.010;2023-02-11T06:16:35;0.70;99.90
16999;DHT22;10211;49.476;11.010;2023-02-11T06:19:02;0.60;99.90
16999;DHT22;10211;49.476;11.010;2023-02-11T06:21:29;0.50;99.90
16999;DHT22;10211;49.476;11.010;2023-02-11T06:23:55;0.50;99.90
16999;DHT22;10211;49.476;11.010;2023-02-11T06:26:26;0.40;99.90
16999;DHT22;10211;49.476;11.010;2023-02-11T06:28:52;0.30;99.90
16999;DHT22;10211;49.476;11.010;2023-02-11T06:31:22;0.20;99.90
16999;DHT22;10211;49.476;11.010;2023-02-11T06:33:48;0.20;99.90
16999;DHT22;10211;49.476;11.010;2023-02-11T06:36:17;0.10;99.90
16999;DHT22;10211;49.476;11.010;2023-02-11T06:38:44;0.00;99.90
16999;DHT22;10211;49.476;11.010;2023-02-11T06:41:12;0.00;99.90
16999;DHT22;10211;49.476;11.010;2023-02-11T06:43:40;-0.10;99.90
16999;DHT22;10211;49.476;11.010;2023-02-11T06:46:07;-0.10;99.90
16999;DHT22;10211;49.476;11.010;2023-02-11T06:48:36;-0.10;99.90
16999;DHT22;10211;49.476;11.010;2023-02-11T06:51:04;0.00;99.90
16999;DHT22;10211;49.476;11.010;2023-02-11T06:53:33;0.00;99.90
16999;DHT22;10211;49.476;11.010;2023-02-11T06:56:08;0.00;99.90
16999;DHT22;10211;49.476;11.010;2023-02-11T06:58:35;0.00;99.90
16999;DHT22;10211;49.476;11.010;2023-02-11T07:01:03;0.00;99.90
16999;DHT22;10211;49.476;11.010;2023-02-11T07:03:31;0.00;99.90
16999;DHT22;10211;49.476;11.010;2023-02-11T07:06:02;0.10;99.90
16999;DHT22;10211;49.476;11.010;2023-02-11T07:08:31;0.10;99.90
16999;DHT22;10211;49.476;11.010;2023-02-11T07:10:58;0.20;99.90
16999;DHT22;10211;49.476;11.010;2023-02-11T07:13:25;0.30;99.90
16999;DHT22;10211;49.476;11.010;2023-02-11T07:15:52;0.30;99.90
16999;DHT22;10211;49.476;11.010;2023-02-11T07:18:19;0.40;99.90
16999;DHT22;10211;49.476;11.010;2023-02-11T07:20:48;0.40;99.90
16999;DHT22;10211;49.476;11.010;2023-02-11T07:23:16;0.50;99.90
16999;DHT22;10211;49.476;11.010;2023-02-11T07:29:09;1.20;99.90
16999;DHT22;10211;49.476;11.010;2023-02-11T07:31:36;1.80;99.90
16999;DHT22;10211;49.476;11.010;2023-02-11T07:34:03;2.40;99.90
16999;DHT22;10211;49.476;11.010;2023-02-11T07:36:30;3.40;99.90
16999;DHT22;10211;49.476;11.010;2023-02-11T07:38:59;4.30;99.90
16999;DHT22;10211;49.476;11.010;2023-02-11T07:41:27;5.30;99.90
16999;DHT22;10211;49.476;11.010;2023-02-11T07:43:54;6.20;99.90
16999;DHT22;10211;49.476;11.010;2023-02-11T07:46:22;7.10;99.90
16999;DHT22;10211;49.476;11.010;2023-02-11T07:48:49;7.70;99.90
16999;DHT22;10211;49.476;11.010;2023-02-11T07:51:18;7.70;99.90
16999;DHT22;10211;49.476;11.010;2023-02-11T07:53:46;7.30;99.90
16999;DHT22;10211;49.476;11.010;2023-02-11T07:56:19;6.60;99.90
16999;DHT22;10211;49.476;11.010;2023-02-11T07:58:46;6.00;99.90
16999;DHT22;10211;49.476;11.010;2023-02-11T08:01:19;5.60;99.90
16999;DHT22;10211;49.476;11.010;2023-02-11T08:03:47;5.40;99.90
16999;DHT22;10211;49.476;11.010;2023-02-11T08:06:15;5.20;99.90
16999;DHT22;10211;49.476;11.010;2023-02-11T08:09:10;5.10;99.90
16999;DHT22;10211;49.476;11.010;2023-02-11T08:11:40;5.00;99.90
16999;DHT22;10211;49.476;11.010;2023-02-11T08:14:08;5.00;99.90
16999;DHT22;10211;49.476;11.010;2023-02-11T08:16:36;4.90;99.90
16999;DHT22;10211;49.476;11.010;2023-02-11T08:19:06;4.70;99.90
16999;DHT22;10211;49.476;11.010;2023-02-11T08:21:33;4.50;99.90
16999;DHT22;10211;49.476;11.010;2023-02-11T08:24:00;4.50;99.90
16999;DHT22;10211;49.476;11.010;2023-02-11T08:26:30;4.40;99.90
16999;DHT22;10211;49.476;11.010;2023-02-11T08:29:02;4.40;99.90
16999;DHT22;10211;49.476;11.010;2023-02-11T08:31:33;4.40;99.90
16999;DHT22;10211;49.476;11.010;2023-02-11T08:34:00;4.40;99.90
16999;DHT22;10211;49.476;11.010;2023-02-11T08:36:28;4.40;99.90
16999;DHT22;10211;49.476;11.010;2023-02-11T08:38:56;4.40;99.90
16999;DHT22;10211;49.476;11.010;2023-02-11T08:41:24;4.40;99.90
16999;DHT22;10211;49.476;11.010;2023-02-11T08:43:51;4.50;99.90
16999;DHT22;10211;49.476;11.010;2023-02-11T08:46:25;4.60;99.90
16999;DHT22;10211;49.476;11.010;2023-02-11T08:48:53;4.60;99.90
16999;DHT22;10211;49.476;11.010;2023-02-11T08:51:22;4.60;99.90
16999;DHT22;10211;49.476;11.010;2023-02-11T08:53:50;4.60;99.90
16999;DHT22;10211;49.476;11.010;2023-02-11T08:56:18;4.70;99.90
16999;DHT22;10211;49.476;11.010;2023-02-11T08:58:47;4.80;99.90
16999;DHT22;10211;49.476;11.010;2023-02-11T09:01:16;4.90;99.90
16999;DHT22;10211;49.476;11.010;2023-02-11T09:03:44;5.00;99.90
16999;DHT22;10211;49.476;11.010;2023-02-11T09:06:13;5.10;99.90
16999;DHT22;10211;49.476;11.010;2023-02-11T09:08:43;5.20;99.90
16999;DHT22;10211;49.476;11.010;2023-02-11T09:11:10;5.30;99.90
16999;DHT22;10211;49.476;11.010;2023-02-11T09:13:39;5.60;99.90
16999;DHT22;10211;49.476;11.010;2023-02-11T09:16:07;5.80;99.90
16999;DHT22;10211;49.476;11.010;2023-02-11T09:18:34;5.90;99.90
16999;DHT22;10211;49.476;11.010;2023-02-11T09:21:03;6.20;99.90
16999;DHT22;10211;49.476;11.010;2023-02-11T09:23:30;6.40;99.90
16999;DHT22;10211;49.476;11.010;2023-02-11T09:26:04;6.60;99.90
16999;DHT22;10211;49.476;11.010;2023-02-11T09:28:31;6.90;99.90
16999;DHT22;10211;49.476;11.010;2023-02-11T09:30:57;7.10;99.90
16999;DHT22;10211;49.476;11.010;2023-02-11T09:33:24;7.20;99.90
16999;DHT22;10211;49.476;11.010;2023-02-11T09:35:51;7.00;99.90
16999;DHT22;10211;49.476;11.010;2023-02-11T09:38:21;6.80;99.90
16999;DHT22;10211;49.476;11.010;2023-02-11T09:40:48;6.80;99.90
16999;DHT22;10211;49.476;11.010;2023-02-11T09:43:16;6.70;99.90
16999;DHT22;10211;49.476;11.010;2023-02-11T09:45:45;6.70;99.90
16999;DHT22;10211;49.476;11.010;2023-02-11T09:48:16;6.90;99.90
16999;DHT22;10211;49.476;11.010;2023-02-11T09:50:46;7.40;99.90
16999;DHT22;10211;49.476;11.010;2023-02-11T09:53:19;8.10;99.90
16999;DHT22;10211;49.476;11.010;2023-02-11T09:55:52;8.40;99.90
16999;DHT22;10211;49.476;11.010;2023-02-11T09:58:25;8.60;99.90
16999;DHT22;10211;49.476;11.010;2023-02-11T10:00:59;8.50;99.90
16999;DHT22;10211;49.476;11.010;2023-02-11T10:03:48;8.50;99.90
16999;DHT22;10211;49.476;11.010;2023-02-11T10:06:35;8.50;99.90
16999;DHT22;10211;49.476;11.010;2023-02-11T10:09:17;8.80;99.90
16999;DHT22;10211;49.476;11.010;2023-02-11T10:11:53;9.40;98.90
16999;DHT22;10211;49.476;11.010;2023-02-11T10:14:35;9.30;98.40
16999;DHT22;10211;49.476;11.010;2023-02-11T10:17:17;9.00;98.50
16999;DHT22;10211;49.476;11.010;2023-02-11T10:19:59;8.70;98.90
16999;DHT22;10211;49.476;11.010;2023-02-11T10:22:31;8.60;99.30
16999;DHT22;10211;49.476;11.010;2023-02-11T10:25:16;8.60;99.50
16999;DHT22;10211;49.476;11.010;2023-02-11T10:27:43;9.10;99.40
16999;DHT22;10211;49.476;11.010;2023-02-11T10:30:19;8.70;99.40
16999;DHT22;10211;49.476;11.010;2023-02-11T10:32:49;8.70;99.00
16999;DHT22;10211;49.476;11.010;2023-02-11T10:35:19;8.80;99.40
16999;DHT22;10211;49.476;11.010;2023-02-11T10:37:47;8.70;99.50
16999;DHT22;10211;49.476;11.010;2023-02-11T10:40:17;8.60;99.70
16999;DHT22;10211;49.476;11.010;2023-02-11T10:42:47;8.40;99.90
16999;DHT22;10211;49.476;11.010;2023-02-11T10:45:18;8.20;99.90
16999;DHT22;10211;49.476;11.010;2023-02-11T10:47:47;8.00;99.90
16999;DHT22;10211;49.476;11.010;2023-02-11T10:50:20;8.10;99.90
16999;DHT22;10211;49.476;11.010;2023-02-11T10:52:47;8.30;99.90
16999;DHT22;10211;49.476;11.010;2023-02-11T10:55:17;8.30;99.90
16999;DHT22;10211;49.476;11.010;2023-02-11T10:57:52;8.10;99.90
16999;DHT22;10211;49.476;11.010;2023-02-11T11:00:26;8.20;99.90
16999;DHT22;10211;49.476;11.010;2023-02-11T11:02:59;8.30;99.90
16999;DHT22;10211;49.476;11.010;2023-02-11T11:05:31;8.20;99.90
16999;DHT22;10211;49.476;11.010;2023-02-11T11:08:01;8.00;99.90
16999;DHT22;10211;49.476;11.010;2023-02-11T11:10:40;8.00;99.90
16999;DHT22;10211;49.476;11.010;2023-02-11T11:13:27;7.90;99.90
16999;DHT22;10211;49.476;11.010;2023-02-11T11:16:17;7.90;99.90
16999;DHT22;10211;49.476;11.010;2023-02-11T11:18:47;8.00;99.90
16999;DHT22;10211;49.476;11.010;2023-02-11T11:21:17;8.00;99.90
16999;DHT22;10211;49.476;11.010;2023-02-11T11:23:54;7.90;99.90
16999;DHT22;10211;49.476;11.010;2023-02-11T11:26:28;8.00;99.90
16999;DHT22;10211;49.476;11.010;2023-02-11T11:29:08;8.00;99.90
16999;DHT22;10211;49.476;11.010;2023-02-11T11:31:45;8.10;99.90
16999;DHT22;10211;49.476;11.010;2023-02-11T11:34:21;8.10;99.90
16999;DHT22;10211;49.476;11.010;2023-02-11T11:36:49;8.00;99.90
16999;DHT22;10211;49.476;11.010;2023-02-11T11:39:20;7.80;99.90
16999;DHT22;10211;49.476;11.010;2023-02-11T11:41:53;7.60;99.90
16999;DHT22;10211;49.476;11.010;2023-02-11T11:44:25;7.60;99.90
16999;DHT22;10211;49.476;11.010;2023-02-11T11:47:12;7.40;99.90
16999;DHT22;10211;49.476;11.010;2023-02-11T11:49:44;7.40;99.90
16999;DHT22;10211;49.476;11.010;2023-02-11T11:52:19;7.30;99.90
16999;DHT22;10211;49.476;11.010;2023-02-11T11:54:57;7.50;99.90
16999;DHT22;10211;49.476;11.010;2023-02-11T11:57:37;7.20;99.90
16999;DHT22;10211;49.476;11.010;2023-02-11T12:00:05;7.10;99.90
16999;DHT22;10211;49.476;11.010;2023-02-11T12:03:19;7.10;99.90
16999;DHT22;10211;49.476;11.010;2023-02-11T12:06:01;7.20;99.90
16999;DHT22;10211;49.476;11.010;2023-02-11T12:08:43;7.20;99.90
16999;DHT22;10211;49.476;11.010;2023-02-11T12:11:22;7.30;99.90
16999;DHT22;10211;49.476;11.010;2023-02-11T12:14:01;7.30;99.90
16999;DHT22;10211;49.476;11.010;2023-02-11T12:16:37;7.50;99.90
16999;DHT22;10211;49.476;11.010;2023-02-11T12:19:41;7.80;99.90
16999;DHT22;10211;49.476;11.010;2023-02-11T12:22:20;8.10;99.90
16999;DHT22;10211;49.476;11.010;2023-02-11T12:25:04;8.20;99.90
16999;DHT22;10211;49.476;11.010;2023-02-11T12:27:46;8.30;99.90
16999;DHT22;10211;49.476;11.010;2023-02-11T12:30:34;8.40;99.90
16999;DHT22;10211;49.476;11.010;2023-02-11T12:33:13;8.40;99.90
16999;DHT22;10211;49.476;11.010;2023-02-11T12:35:47;8.20;99.90
16999;DHT22;10211;49.476;11.010;2023-02-11T12:38:36;8.10;99.90
16999;DHT22;10211;49.476;11.010;2023-02-11T12:41:22;8.10;99.90
16999;DHT22;10211;49.476;11.010;2023-02-11T12:44:12;8.20;99.90
16999;DHT22;10211;49.476;11.010;2023-02-11T12:46:47;8.30;99.90
16999;DHT22;10211;49.476;11.010;2023-02-11T12:49:40;8.30;99.90
16999;DHT22;10211;49.476;11.010;2023-02-11T12:52:24;8.40;99.90
16999;DHT22;10211;49.476;11.010;2023-02-11T12:54:57;8.50;99.90
16999;DHT22;10211;49.476;11.010;2023-02-11T12:57:25;8.60;99.90
16999;DHT22;10211;49.476;11.010;2023-02-11T12:59:57;8.90;99.90
16999;DHT22;10211;49.476;11.010;2023-02-11T13:02:35;9.10;99.90
16999;DHT22;10211;49.476;11.010;2023-02-11T13:05:22;9.20;99.90
16999;DHT22;10211;49.476;11.010;2023-02-11T13:07:53;9.30;99.90
16999;DHT22;10211;49.476;11.010;2023-02-11T13:10:26;9.20;98.80
16999;DHT22;10211;49.476;11.010;2023-02-11T13:12:55;9.00;99.00
16999;DHT22;10211;49.476;11.010;2023-02-11T13:15:44;8.60;98.70
16999;DHT22;10211;49.476;11.010;2023-02-11T13:18:24;8.40;99.40
16999;DHT22;10211;49.476;11.010;2023-02-11T13:20:56;8.20;99.60
16999;DHT22;10211;49.476;11.010;2023-02-11T13:23:33;8.00;99.90
16999;DHT22;10211;49.476;11.010;2023-02-11T13:26:07;7.90;99.90
16999;DHT22;10211;49.476;11.010;2023-02-11T13:28:44;7.90;99.90
16999;DHT22;10211;49.476;11.010;2023-02-11T13:31:12;7.80;99.90
16999;DHT22;10211;49.476;11.010;2023-02-11T13:33:42;7.80;99.90
16999;DHT22;10211;49.476;11.010;2023-02-11T13:36:19;7.70;99.90
16999;DHT22;10211;49.476;11.010;2023-02-11T13:38:58;7.60;99.90
16999;DHT22;10211;49.476;11.010;2023-02-11T13:41:29;7.50;99.90
16999;DHT22;10211;49.476;11.010;2023-02-11T13:43:58;7.40;99.90
16999;DHT22;10211;49.476;11.010;2023-02-11T13:46:25;7.40;99.90
16999;DHT22;10211;49.476;11.010;2023-02-11T13:48:54;7.40;99.90
16999;DHT22;10211;49.476;11.010;2023-02-11T13:51:34;7.40;99.90
16999;DHT22;10211;49.476;11.010;2023-02-11T13:54:02;7.30;99.90
16999;DHT22;10211;49.476;11.010;2023-02-11T13:56:32;7.30;99.90
16999;DHT22;10211;49.476;11.010;2023-02-11T13:59:01;7.20;99.90
16999;DHT22;10211;49.476;11.010;2023-02-11T14:05:15;6.90;99.90
16999;DHT22;10211;49.476;11.010;2023-02-11T14:08:23;6.90;99.90
16999;DHT22;10211;49.476;11.010;2023-02-11T14:11:45;6.90;99.90
16999;DHT22;10211;49.476;11.010;2023-02-11T14:14:21;6.90;99.90
16999;DHT22;10211;49.476;11.010;2023-02-11T14:17:28;6.90;99.90
16999;DHT22;10211;49.476;11.010;2023-02-11T14:19:56;6.80;99.90
16999;DHT22;10211;49.476;11.010;2023-02-11T14:22:27;6.80;99.90
16999;DHT22;10211;49.476;11.010;2023-02-11T14:24:58;6.70;99.90
16999;DHT22;10211;49.476;11.010;2023-02-11T14:27:35;6.70;99.90
16999;DHT22;10211;49.476;11.010;2023-02-11T14:30:22;6.80;99.90
16999;DHT22;10211;49.476;11.010;2023-02-11T14:33:19;6.90;99.90
16999;DHT22;10211;49.476;11.010;2023-02-11T14:36:00;7.10;99.90
16999;DHT22;10211;49.476;11.010;2023-02-11T14:38:38;7.10;99.90
16999;DHT22;10211;49.476;11.010;2023-02-11T14:41:09;7.20;99.90
16999;DHT22;10211;49.476;11.010;2023-02-11T14:43:39;7.10;99.90
16999;DHT22;10211;49.476;11.010;2023-02-11T14:46:06;7.00;99.90
16999;DHT22;10211;49.476;11.010;2023-02-11T14:48:36;7.00;99.90
16999;DHT22;10211;49.476;11.010;2023-02-11T14:51:07;6.90;99.90
16999;DHT22;10211;49.476;11.010;2023-02-11T14:53:36;6.90;99.90
16999;DHT22;10211;49.476;11.010;2023-02-11T14:56:20;6.90;99.90
16999;DHT22;10211;49.476;11.010;2023-02-11T14:58:50;6.80;99.90
16999;DHT22;10211;49.476;11.010;2023-02-11T15:01:38;6.80;99.90
16999;DHT22;10211;49.476;11.010;2023-02-11T15:04:22;6.60;99.90
16999;DHT22;10211;49.476;11.010;2023-02-11T15:06:48;6.50;99.90
16999;DHT22;10211;49.476;11.010;2023-02-11T15:09:27;6.40;99.90
16999;DHT22;10211;49.476;11.010;2023-02-11T15:11:57;6.40;99.90
16999;DHT22;10211;49.476;11.010;2023-02-11T15:14:26;6.40;99.90
16999;DHT22;10211;49.476;11.010;2023-02-11T15:16:55;6.40;99.90
16999;DHT22;10211;49.476;11.010;2023-02-11T15:19:25;6.40;99.90
16999;DHT22;10211;49.476;11.010;2023-02-11T15:21:54;6.40;99.90
16999;DHT22;10211;49.476;11.010;2023-02-11T15:24:25;6.30;99.90
16999;DHT22;10211;49.476;11.010;2023-02-11T15:27:10;6.30;99.90
16999;DHT22;10211;49.476;11.010;2023-02-11T15:29:41;6.20;99.90
16999;DHT22;10211;49.476;11.010;2023-02-11T15:32:13;6.20;99.90
16999;DHT22;10211;49.476;11.010;2023-02-11T15:34:42;6.20;99.90
16999;DHT22;10211;49.476;11.010;2023-02-11T15:37:11;6.20;99.90
16999;DHT22;10211;49.476;11.010;2023-02-11T15:40:07;6.20;99.90
16999;DHT22;10211;49.476;11.010;2023-02-11T15:42:34;6.20;99.90
16999;DHT22;10211;49.476;11.010;2023-02-11T15:45:16;6.20;99.90
16999;DHT22;10211;49.476;11.010;2023-02-11T15:47:50;6.20;99.90
16999;DHT22;10211;49.476;11.010;2023-02-11T15:50:19;6.10;99.90
16999;DHT22;10211;49.476;11.010;2023-02-11T15:52:46;6.10;99.90
16999;DHT22;10211;49.476;11.010;2023-02-11T15:55:35;6.10;99.90
16999;DHT22;10211;49.476;11.010;2023-02-11T15:58:02;6.10;99.90
16999;DHT22;10211;49.476;11.010;2023-02-11T16:00:33;6.10;99.90
16999;DHT22;10211;49.476;11.010;2023-02-11T16:03:01;6.10;99.90
16999;DHT22;10211;49.476;11.010;2023-02-11T16:05:31;6.10;99.90
16999;DHT22;10211;49.476;11.010;2023-02-11T16:08:18;6.10;99.90
16999;DHT22;10211;49.476;11.010;2023-02-11T16:10:55;6.10;99.90
16999;DHT22;10211;49.476;11.010;2023-02-11T16:13:23;6.00;99.90
16999;DHT22;10211;49.476;11.010;2023-02-11T16:15:52;6.00;99.90
16999;DHT22;10211;49.476;11.010;2023-02-11T16:18:31;6.00;99.90
16999;DHT22;10211;49.476;11.010;2023-02-11T16:20:58;6.00;99.90
16999;DHT22;10211;49.476;11.010;2023-02-11T16:23:28;5.90;99.90